createdAt,value
2019-04-30T00:01:36.254Z,85.92
2019-04-30T00:04:50.529Z,86.29
2019-04-30T00:08:05.844Z,86.18
2019-04-30T00:11:19.683Z,85.97
2019-04-30T00:14:38.626Z,86.05
2019-04-30T00:17:52.994Z,86.19
2019-04-30T00:21:05.566Z,86.09
2019-04-30T00:24:19.815Z,86.33
2019-04-30T00:27:33.539Z,86.34
2019-04-30T00:30:47.873Z,86.31
2019-04-30T00:34:01.775Z,86.70
2019-04-30T00:37:18.771Z,86.28
2019-04-30T00:40:30.959Z,86.11
2019-04-30T00:43:49.377Z,86.30
2019-04-30T00:47:04.210Z,86.58
2019-04-30T00:50:15.922Z,86.84
2019-04-30T00:53:29.565Z,87.16
2019-04-30T00:56:43.311Z,87.05
2019-04-30T00:59:57.029Z,86.94
2019-04-30T01:03:16.378Z,87.19
2019-04-30T01:06:30.350Z,87.30
2019-04-30T01:09:49.277Z,87.29
2019-04-30T01:13:07.359Z,87.24
2019-04-30T01:16:15.357Z,87.36
2019-04-30T01:19:32.315Z,87.07
2019-04-30T01:22:44.722Z,87.11
2019-04-30T01:25:59.158Z,87.15
2019-04-30T01:29:12.775Z,86.81
2019-04-30T01:32:28.161Z,86.74
2019-04-30T01:35:41.965Z,86.66
2019-04-30T01:38:55.497Z,86.93
2019-04-30T01:42:11.347Z,86.80
2019-04-30T01:45:30.120Z,87.20
2019-04-30T01:48:43.675Z,87.54
2019-04-30T01:51:57.374Z,87.49
2019-04-30T01:55:11.183Z,87.66
2019-04-30T01:58:33.803Z,87.75
2019-04-30T02:01:48.730Z,87.44
2019-04-30T02:05:03.074Z,87.46
2019-04-30T02:08:16.779Z,87.32
2019-04-30T02:11:30.930Z,87.05
2019-04-30T02:14:44.675Z,87.08
2019-04-30T02:17:58.827Z,87.08
2019-04-30T02:21:12.797Z,86.90
2019-04-30T02:24:26.297Z,87.20
2019-04-30T02:27:40.225Z,87.16
2019-04-30T02:30:54.063Z,86.92
2019-04-30T02:34:15.970Z,87.14
2019-04-30T02:37:31.425Z,87.10
2019-04-30T02:40:45.436Z,87.30
2019-04-30T02:44:00.618Z,87.18
2019-04-30T02:47:16.545Z,87.00
2019-04-30T02:50:32.637Z,87.03
2019-04-30T02:54:23.667Z,86.96
2019-04-30T02:57:35.779Z,86.79
2019-04-30T03:00:49.687Z,86.60
2019-04-30T03:04:03.418Z,86.96
2019-04-30T03:07:19.395Z,86.65
2019-04-30T03:10:32.629Z,86.80
2019-04-30T03:13:49.262Z,86.68
2019-04-30T03:17:11.367Z,86.79
2019-04-30T03:20:36.279Z,86.67
2019-04-30T03:23:50.333Z,86.52
2019-04-30T03:27:04.159Z,86.58
2019-04-30T03:30:21.995Z,86.47
2019-04-30T03:33:33.613Z,86.40
2019-04-30T03:36:50.202Z,86.41
2019-04-30T03:40:04.373Z,86.89
2019-04-30T03:43:20.109Z,86.90
2019-04-30T03:46:33.584Z,87.56
2019-04-30T03:49:49.916Z,87.65
2019-04-30T03:53:02.884Z,88.17
2019-04-30T03:56:22.400Z,87.41
2019-04-30T03:59:32.284Z,87.58
2019-04-30T04:02:46.656Z,87.31
2019-04-30T04:06:21.266Z,87.17
2019-04-30T04:09:40.128Z,87.10
2019-04-30T04:12:54.020Z,87.25
2019-04-30T04:16:09.667Z,87.16
2019-04-30T04:19:23.524Z,87.46
2019-04-30T04:22:40.092Z,87.64
2019-04-30T04:25:52.691Z,87.69
2019-04-30T04:29:06.188Z,87.30
2019-04-30T04:32:23.955Z,86.99
2019-04-30T04:35:35.924Z,86.59
2019-04-30T04:38:50.750Z,86.11
2019-04-30T04:42:04.642Z,85.73
2019-04-30T04:45:19.881Z,85.43
2019-04-30T04:48:33.723Z,85.37
2019-04-30T04:51:49.266Z,85.70
2019-04-30T04:55:03.267Z,85.95
2019-04-30T04:58:21.170Z,85.49
2019-04-30T05:01:32.379Z,85.29
2019-04-30T05:04:45.975Z,85.26
2019-04-30T05:07:59.850Z,85.31
2019-04-30T05:11:13.350Z,85.56
2019-04-30T05:16:33.698Z,85.21
2019-04-30T05:19:48.750Z,85.44
2019-04-30T05:23:02.929Z,85.31
2019-04-30T05:26:16.509Z,84.75
2019-04-30T05:29:30.051Z,85.26
2019-04-30T05:32:43.530Z,85.17
2019-04-30T05:35:57.156Z,84.87
2019-04-30T05:39:10.766Z,84.08
2019-04-30T05:42:24.274Z,83.61
2019-04-30T05:45:39.014Z,82.95
2019-04-30T05:48:52.763Z,82.87
2019-04-30T05:52:06.293Z,81.60
2019-04-30T05:55:20.317Z,81.44
2019-04-30T05:58:34.055Z,81.68
2019-04-30T06:01:50.589Z,81.35
2019-04-30T06:05:04.076Z,80.23
2019-04-30T06:08:19.725Z,78.32
2019-04-30T06:11:51.852Z,77.89
2019-04-30T06:15:12.069Z,77.65
2019-04-30T06:18:25.884Z,75.99
2019-04-30T06:21:39.693Z,75.56
2019-04-30T06:24:53.416Z,75.23
2019-04-30T06:28:07.262Z,75.24
2019-04-30T06:31:31.915Z,74.95
2019-04-30T06:34:41.610Z,74.27
2019-04-30T06:37:53.723Z,73.88
2019-04-30T06:41:08.692Z,73.36
2019-04-30T06:44:34.750Z,73.69
2019-04-30T06:47:38.952Z,71.37
2019-04-30T06:50:52.609Z,69.18
2019-04-30T06:54:06.586Z,69.24
2019-04-30T06:57:22.377Z,67.20
2019-04-30T07:00:39.609Z,67.59
2019-04-30T07:03:52.628Z,69.29
2019-04-30T07:07:06.242Z,68.36
2019-04-30T07:10:26.066Z,68.29
2019-04-30T07:13:42.722Z,68.31
2019-04-30T07:16:56.627Z,67.11
2019-04-30T07:20:10.643Z,68.15
2019-04-30T07:23:24.245Z,67.23
2019-04-30T07:26:38.902Z,65.17
2019-04-30T07:29:52.559Z,63.13
2019-04-30T07:33:06.405Z,61.69
2019-04-30T07:36:20.142Z,60.68
2019-04-30T07:39:33.626Z,60.96
2019-04-30T07:42:49.170Z,61.28
2019-04-30T07:46:02.792Z,62.59
2019-04-30T07:49:16.278Z,62.05
2019-04-30T07:52:33.236Z,63.41
2019-04-30T07:55:49.369Z,62.52
2019-04-30T07:59:03.932Z,62.40
2019-04-30T08:02:20.529Z,59.87
2019-04-30T08:05:40.153Z,58.76
2019-04-30T08:08:57.431Z,60.45
2019-04-30T08:12:09.963Z,60.26
2019-04-30T08:15:24.368Z,61.20
2019-04-30T08:18:39.238Z,60.47
2019-04-30T08:21:52.773Z,60.50
2019-04-30T08:25:06.773Z,60.11
2019-04-30T08:28:20.644Z,59.10
2019-04-30T08:31:34.230Z,56.11
2019-04-30T08:34:49.981Z,56.29
2019-04-30T08:38:03.904Z,54.46
2019-04-30T08:41:19.246Z,56.21
2019-04-30T08:44:32.793Z,56.63
2019-04-30T08:47:46.560Z,58.82
2019-04-30T08:51:00.091Z,56.61
2019-04-30T08:54:13.798Z,54.72
2019-04-30T08:57:29.411Z,54.89
2019-04-30T09:00:43.315Z,56.07
2019-04-30T09:03:59.444Z,53.56
2019-04-30T09:07:13.892Z,53.82
2019-04-30T09:10:29.443Z,52.66
2019-04-30T09:13:43.108Z,52.08
2019-04-30T09:16:56.823Z,51.02
2019-04-30T09:20:11.020Z,49.17
2019-04-30T09:23:24.514Z,50.65
2019-04-30T09:26:39.144Z,47.82
2019-04-30T09:29:52.859Z,47.46
2019-04-30T09:33:06.480Z,47.61
2019-04-30T09:36:20.868Z,46.89
2019-04-30T09:39:34.521Z,45.66
2019-04-30T09:42:48.739Z,48.46
2019-04-30T09:46:14.997Z,47.13
2019-04-30T09:49:19.487Z,42.81
2019-04-30T09:52:35.812Z,40.38
2019-04-30T09:55:49.638Z,38.56
2019-04-30T09:59:03.404Z,40.43
2019-04-30T10:02:19.139Z,40.09
2019-04-30T10:05:32.926Z,39.93
2019-04-30T10:08:49.276Z,37.90
2019-04-30T10:12:09.709Z,39.40
2019-04-30T10:15:35.200Z,39.53
2019-04-30T10:18:48.914Z,39.99
2019-04-30T10:22:02.962Z,40.05
2019-04-30T10:25:16.563Z,37.07
2019-04-30T10:28:32.419Z,39.56
2019-04-30T10:31:46.146Z,37.34
2019-04-30T10:35:00.173Z,36.77
2019-04-30T10:38:13.898Z,37.43
2019-04-30T10:41:28.738Z,36.28
2019-04-30T10:44:42.689Z,37.09
2019-04-30T10:47:56.501Z,36.86
2019-04-30T10:51:10.110Z,35.32
2019-04-30T10:54:26.362Z,36.23
2019-04-30T10:57:39.652Z,35.49
2019-04-30T11:00:54.293Z,39.61
2019-04-30T11:04:08.896Z,38.91
2019-04-30T11:07:22.414Z,35.85
2019-04-30T11:10:36.764Z,34.96
2019-04-30T11:13:50.717Z,36.59
2019-04-30T11:17:04.656Z,35.26
2019-04-30T11:20:21.683Z,34.78
2019-04-30T11:23:34.359Z,36.37
2019-04-30T11:26:50.071Z,33.78
2019-04-30T11:30:05.963Z,35.12
2019-04-30T11:33:20.905Z,33.03
2019-04-30T11:36:35.077Z,33.42
2019-04-30T11:39:49.226Z,33.11
2019-04-30T11:43:03.243Z,34.31
2019-04-30T11:46:54.768Z,33.63
2019-04-30T11:50:12.144Z,32.83
2019-04-30T11:53:28.821Z,34.82
2019-04-30T11:56:41.892Z,33.20
2019-04-30T11:59:56.100Z,33.55
2019-04-30T12:03:09.828Z,31.80
2019-04-30T12:06:23.417Z,33.56
2019-04-30T12:09:55.389Z,29.49
2019-04-30T12:16:40.858Z,30.80
2019-04-30T12:19:54.463Z,28.77
2019-04-30T12:23:11.488Z,29.58
2019-04-30T12:26:23.498Z,28.21
2019-04-30T12:29:37.119Z,26.97
2019-04-30T12:32:51.020Z,28.33
2019-04-30T12:36:06.392Z,27.57
2019-04-30T12:39:20.114Z,25.48
2019-04-30T12:42:33.851Z,26.33
2019-04-30T12:46:01.905Z,25.68
2019-04-30T12:49:10.195Z,25.97
2019-04-30T12:52:29.704Z,26.12
2019-04-30T12:56:00.282Z,25.10
2019-04-30T12:59:13.997Z,27.69
2019-04-30T13:02:29.034Z,25.34
2019-04-30T13:05:42.995Z,24.09
2019-04-30T13:08:59.756Z,23.19
2019-04-30T13:12:12.922Z,24.06
2019-04-30T13:15:26.672Z,24.96
2019-04-30T13:18:40.296Z,24.59
2019-04-30T13:21:53.810Z,26.77
2019-04-30T13:25:09.282Z,23.18
2019-04-30T13:28:24.931Z,23.37
2019-04-30T13:31:40.281Z,24.55
2019-04-30T13:35:00.665Z,24.14
2019-04-30T13:38:24.995Z,23.77
2019-04-30T13:41:51.019Z,24.04
2019-04-30T13:45:05.235Z,27.20
2019-04-30T13:48:19.723Z,23.71
2019-04-30T13:51:33.296Z,27.82
2019-04-30T13:54:46.804Z,24.28
2019-04-30T13:58:00.318Z,23.41
2019-04-30T14:01:16.835Z,25.10
2019-04-30T14:05:02.324Z,23.00
2019-04-30T14:08:44.336Z,24.85
2019-04-30T14:11:58.190Z,23.51
2019-04-30T14:15:14.777Z,24.22
2019-04-30T14:18:33.783Z,23.74
2019-04-30T14:21:44.144Z,22.81
2019-04-30T14:24:57.923Z,23.53
2019-04-30T14:28:11.653Z,26.30
2019-04-30T14:31:28.836Z,24.65
2019-04-30T14:34:42.843Z,26.49
2019-04-30T14:37:56.470Z,25.66
2019-04-30T14:41:10.602Z,25.44
2019-04-30T14:44:26.256Z,23.86
2019-04-30T14:47:50.311Z,23.06
2019-04-30T14:51:03.424Z,23.21
2019-04-30T14:54:26.313Z,26.42
2019-04-30T14:58:05.638Z,26.01
2019-04-30T15:01:25.099Z,23.46
2019-04-30T15:04:39.274Z,25.51
2019-04-30T15:07:53.060Z,26.46
2019-04-30T15:11:08.947Z,24.22
2019-04-30T15:14:23.076Z,25.10
2019-04-30T15:17:36.956Z,25.61
2019-04-30T15:20:52.471Z,24.15
2019-04-30T15:24:15.618Z,24.71
2019-04-30T15:27:29.121Z,26.35
2019-04-30T15:30:42.725Z,24.87
2019-04-30T15:34:10.727Z,24.12
2019-04-30T15:37:23.991Z,25.40
2019-04-30T15:40:38.860Z,26.35
2019-04-30T15:43:52.779Z,25.91
2019-04-30T15:47:06.491Z,26.63
2019-04-30T15:50:20.203Z,26.77
2019-04-30T15:53:33.716Z,27.86
2019-04-30T15:56:48.999Z,27.25
2019-04-30T16:00:03.798Z,25.80
2019-04-30T16:03:22.793Z,25.81
2019-04-30T16:06:36.267Z,27.02
2019-04-30T16:10:00.838Z,26.80
2019-04-30T16:13:19.484Z,27.29
2019-04-30T16:16:35.096Z,27.86
2019-04-30T16:19:48.593Z,26.21
2019-04-30T16:23:02.429Z,27.89
2019-04-30T16:26:16.201Z,25.48
2019-04-30T16:29:30.107Z,26.13
2019-04-30T16:32:43.833Z,26.45
2019-04-30T16:35:58.978Z,26.53
2019-04-30T16:39:12.704Z,27.90
2019-04-30T16:42:26.241Z,27.42
2019-04-30T16:45:39.864Z,25.54
2019-04-30T16:48:53.490Z,25.45
2019-04-30T16:52:09.142Z,24.21
2019-04-30T16:55:22.524Z,23.92
2019-04-30T16:58:54.674Z,22.30
2019-04-30T17:02:09.468Z,21.90
2019-04-30T17:05:36.486Z,23.17
2019-04-30T17:09:01.035Z,22.79
2019-04-30T17:12:23.065Z,21.02
2019-04-30T17:15:37.492Z,24.08
2019-04-30T17:18:51.005Z,24.08
2019-04-30T17:22:04.805Z,24.46
2019-04-30T17:25:18.641Z,25.30
2019-04-30T17:28:32.269Z,26.32
2019-04-30T17:31:46.091Z,25.73
2019-04-30T17:34:59.638Z,28.07
2019-04-30T17:38:13.554Z,30.10
2019-04-30T17:41:27.182Z,30.85
2019-04-30T17:44:40.968Z,34.31
2019-04-30T17:47:54.848Z,34.84
2019-04-30T17:51:09.415Z,35.85
2019-04-30T17:54:23.179Z,37.07
2019-04-30T17:57:36.917Z,36.75
2019-04-30T18:00:53.713Z,39.45
2019-04-30T18:04:08.781Z,39.94
2019-04-30T18:07:22.665Z,41.13
2019-04-30T18:10:36.519Z,42.74
2019-04-30T18:13:50.713Z,44.32
2019-04-30T18:17:04.984Z,45.77
2019-04-30T18:20:29.133Z,47.35
2019-04-30T18:23:53.994Z,50.13
2019-04-30T18:27:43.935Z,50.31
2019-04-30T18:30:51.574Z,50.95
2019-04-30T18:34:05.234Z,52.78
2019-04-30T18:37:19.027Z,53.38
2019-04-30T18:40:32.732Z,53.14
2019-04-30T18:43:48.594Z,53.81
2019-04-30T18:47:02.465Z,53.77
2019-04-30T18:50:16.372Z,55.09
2019-04-30T18:53:31.904Z,57.10
2019-04-30T18:56:45.633Z,55.64
2019-04-30T19:00:01.501Z,57.08
2019-04-30T19:03:14.978Z,58.02
2019-04-30T19:06:29.499Z,58.54
2019-04-30T19:09:50.417Z,60.30
2019-04-30T19:13:19.757Z,61.04
2019-04-30T19:16:46.516Z,60.37
2019-04-30T19:20:18.911Z,61.09
2019-04-30T19:23:32.501Z,61.58
2019-04-30T19:26:46.021Z,61.88
2019-04-30T19:29:59.537Z,61.92
2019-04-30T19:33:13.134Z,62.53
2019-04-30T19:36:35.067Z,63.00
2019-04-30T19:39:42.379Z,63.27
2019-04-30T19:42:55.881Z,63.71
2019-04-30T19:46:09.796Z,64.09
2019-04-30T19:49:23.282Z,64.55
2019-04-30T19:52:36.783Z,65.07
2019-04-30T19:55:50.778Z,66.06
2019-04-30T19:59:05.693Z,66.02
2019-04-30T20:02:21.692Z,65.84
2019-04-30T20:05:35.103Z,66.56
2019-04-30T20:08:48.715Z,67.04
2019-04-30T20:12:02.829Z,67.43
2019-04-30T20:15:21.547Z,67.95
2019-04-30T20:18:31.856Z,68.76
2019-04-30T20:21:50.769Z,69.08
2019-04-30T20:25:09.016Z,69.50
2019-04-30T20:28:22.558Z,69.82
2019-04-30T20:31:36.359Z,69.67
2019-04-30T20:34:49.966Z,69.78
2019-04-30T20:38:21.016Z,70.11
2019-04-30T20:41:34.517Z,70.14
2019-04-30T20:44:48.955Z,70.25
2019-04-30T20:48:03.095Z,70.85
2019-04-30T20:51:16.633Z,71.09
2019-04-30T20:54:30.252Z,71.12
2019-04-30T20:57:43.818Z,71.84
2019-04-30T21:01:04.015Z,71.98
2019-04-30T21:04:13.306Z,72.48
2019-04-30T21:07:26.825Z,72.64
2019-04-30T21:10:40.736Z,73.57
2019-04-30T21:16:33.812Z,73.11
2019-04-30T21:19:47.312Z,73.51
2019-04-30T21:23:00.975Z,73.39
2019-04-30T21:26:14.863Z,73.90
2019-04-30T21:29:29.542Z,74.26
2019-04-30T21:33:03.362Z,74.71
2019-04-30T21:36:20.171Z,74.75
2019-04-30T21:39:33.802Z,75.38
2019-04-30T21:42:47.554Z,76.04
2019-04-30T21:46:01.322Z,76.24
2019-04-30T21:49:14.835Z,76.43
2019-04-30T21:52:28.486Z,75.87
2019-04-30T21:55:42.012Z,76.36
2019-04-30T21:58:55.521Z,76.61
2019-04-30T22:02:09.976Z,77.05
2019-04-30T22:05:23.682Z,76.56
2019-04-30T22:08:38.813Z,76.79
2019-04-30T22:11:53.167Z,77.25
2019-04-30T22:15:07.074Z,77.53
2019-04-30T22:18:20.712Z,77.72
2019-04-30T22:21:34.323Z,77.30
2019-04-30T22:24:49.707Z,77.46
2019-04-30T22:28:03.736Z,77.85
2019-04-30T22:31:17.249Z,77.84
2019-04-30T22:34:30.819Z,78.06
2019-04-30T22:37:44.349Z,78.46
2019-04-30T22:40:58.922Z,78.71
2019-04-30T22:44:12.504Z,79.35
2019-04-30T22:47:26.121Z,79.18
2019-04-30T22:50:40.093Z,79.53
2019-04-30T22:53:53.732Z,79.50
2019-04-30T22:57:07.548Z,79.10
2019-04-30T23:00:29.145Z,79.15
2019-04-30T23:03:42.667Z,79.10
2019-04-30T23:06:56.591Z,80.23
2019-04-30T23:10:10.288Z,80.35
2019-04-30T23:13:24.141Z,80.16
2019-04-30T23:16:37.878Z,80.19
2019-04-30T23:19:51.424Z,80.55
2019-04-30T23:23:05.048Z,80.40
2019-04-30T23:26:19.109Z,80.51
2019-04-30T23:29:32.898Z,80.72
2019-04-30T23:32:46.719Z,81.14
2019-04-30T23:36:00.263Z,80.94
2019-04-30T23:39:14.087Z,80.96
2019-04-30T23:42:27.589Z,80.92
2019-04-30T23:45:41.431Z,81.02
2019-04-30T23:48:55.062Z,80.97
2019-04-30T23:52:08.789Z,81.08
2019-04-30T23:55:22.405Z,80.85
